Time;durP1;ratioP1;P1;durP2;ratioP2;P2;SDS_P1;SDS_P2;PMS_P1;PMS_P2;Temp;Humidity;BMP_temperature;BMP_pressure;BME280_temperature;BME280_humidity;BME280_pressure;Samples;Min_cycle;Max_cycle;Signal;HPM_P1;HPM_P2
2021/08/03 15:02:18;;;;;;;3.30;1.92;;;48.80;53.70;;;;;;5093355;28;20389;-87
2021/08/03 15:04:44;;;;;;;7.47;3.97;;;47.30;51.20;;;;;;5097641;28;20050;-89
2021/08/03 15:07:10;;;;;;;1.83;1.55;;;46.60;55.00;;;;;;5107521;28;20032;-87
2021/08/03 15:09:35;;;;;;;2.20;2.00;;;47.40;52.70;;;;;;5072997;28;20068;-88
2021/08/03 15:12:01;;;;;;;1.40;1.30;;;47.30;52.00;;;;;;5072626;28;20053;-88
2021/08/03 15:14:28;;;;;;;1.42;1.23;;;46.60;49.10;;;;;;5057611;28;20040;-88
2021/08/03 15:16:53;;;;;;;1.17;1.17;;;44.80;49.20;;;;;;5037117;28;20034;-89
2021/08/03 15:19:21;;;;;;;1.92;1.80;;;42.80;49.40;;;;;;5052442;28;20492;-89
2021/08/03 15:21:50;;;;;;;1.70;1.60;;;42.70;55.60;;;;;;5055116;28;20100;-89
2021/08/03 15:24:16;;;;;;;2.00;1.80;;;43.80;56.30;;;;;;5055989;28;20025;-90
2021/08/03 15:26:44;;;;;;;1.45;1.35;;;44.70;53.30;;;;;;5053355;28;20032;-89
2021/08/03 15:29:11;;;;;;;1.55;1.30;;;45.00;49.70;;;;;;5052725;28;20389;-89
2021/08/03 15:31:36;;;;;;;5.57;3.42;;;43.20;46.90;;;;;;5020983;28;20478;-91
2021/08/03 15:34:08;;;;;;;1.80;1.67;;;41.30;50.00;;;;;;5053785;28;20031;-91
2021/08/03 15:36:34;;;;;;;1.95;1.70;;;40.30;52.50;;;;;;5036255;28;20051;-88
2021/08/03 15:39:00;;;;;;;1.67;1.58;;;39.60;54.80;;;;;;5052970;28;20108;-89
2021/08/03 15:41:26;;;;;;;3.00;2.17;;;40.20;58.60;;;;;;5054190;28;20086;-88
2021/08/03 15:43:51;;;;;;;5.07;2.88;;;41.10;56.70;;;;;;5036637;28;20485;-88
2021/08/03 15:46:18;;;;;;;1.45;1.30;;;41.10;53.60;;;;;;5052195;28;20029;-85
2021/08/03 15:48:44;;;;;;;1.60;1.23;;;40.40;52.50;;;;;;5053438;28;20017;-88
2021/08/03 15:51:09;;;;;;;1.30;1.23;;;39.70;51.60;;;;;;5055037;28;20112;-88
2021/08/03 15:53:37;;;;;;;1.40;1.30;;;38.70;49.60;;;;;;5051941;28;20084;-85
2021/08/03 15:56:04;;;;;;;1.33;1.10;;;37.30;51.40;;;;;;5052215;28;20029;-86
2021/08/03 15:58:30;;;;;;;1.85;1.30;;;36.20;53.20;;;;;;5053922;28;20021;-86
2021/08/03 16:00:56;;;;;;;1.33;1.23;;;35.30;53.80;;;;;;5050915;28;20046;-84
2021/08/03 16:03:22;;;;;;;2.58;1.52;;;34.50;55.90;;;;;;5052582;28;20025;-84
2021/08/03 16:05:47;;;;;;;4.35;2.78;;;33.90;57.70;;;;;;5033855;28;20037;-84
2021/08/03 16:08:16;;;;;;;7.75;4.45;;;33.50;58.70;;;;;;5034408;28;20032;-85
2021/08/03 16:10:42;;;;;;;3.20;1.70;;;33.00;60.00;;;;;;5052433;28;20382;-84
2021/08/03 16:13:12;;;;;;;1.95;1.48;;;32.50;59.70;;;;;;5037354;28;20128;-84
2021/08/03 16:15:40;;;;;;;1.00;1.00;;;31.90;60.60;;;;;;5016971;28;20026;-83
2021/08/03 16:18:11;;;;;;;1.98;1.63;;;31.40;61.30;;;;;;5017450;28;20093;-84
2021/08/03 16:20:38;;;;;;;2.47;1.70;;;31.50;66.40;;;;;;5017713;28;20026;-86
2021/08/03 16:23:10;;;;;;;1.27;1.23;;;33.30;67.50;;;;;;5016743;28;20103;-84
2021/08/03 16:25:39;;;;;;;1.83;1.40;;;34.70;61.90;;;;;;5018163;28;20161;-85
2021/08/03 16:28:05;;;;;;;1.25;1.13;;;34.90;57.10;;;;;;5018640;28;20026;-85
2021/08/03 16:30:31;;;;;;;1.50;1.40;;;33.90;53.60;;;;;;5000642;28;20394;-85
2021/08/03 16:33:00;;;;;;;1.85;1.30;;;32.70;56.00;;;;;;5016131;28;20084;-85
2021/08/03 16:35:28;;;;;;;1.40;1.27;;;31.70;58.50;;;;;;5021091;28;20024;-85
2021/08/03 16:38:01;;;;;;;2.08;1.40;;;30.90;60.70;;;;;;5034969;28;20022;-85
2021/08/03 16:40:29;;;;;;;1.77;1.58;;;30.20;63.50;;;;;;5035674;28;20021;-85
2021/08/03 16:42:56;;;;;;;3.72;1.88;;;29.60;63.70;;;;;;5036376;28;20049;-86
2021/08/03 16:45:23;;;;;;;3.38;1.73;;;29.10;65.50;;;;;;5018254;28;20083;-85
2021/08/03 16:47:48;;;;;;;2.15;1.65;;;28.70;66.70;;;;;;5034817;28;20120;-85
2021/08/03 16:50:15;;;;;;;1.90;1.40;;;28.60;68.50;;;;;;5034221;28;20112;-84
2021/08/03 16:52:44;;;;;;;3.17;1.70;;;28.80;68.70;;;;;;5034148;28;20041;-84
2021/08/03 16:55:14;;;;;;;3.97;1.98;;;28.90;67.20;;;;;;5034338;28;20549;-84
2021/08/03 16:57:40;;;;;;;3.47;1.88;;;28.80;67.20;;;;;;5034164;28;20034;-83
2021/08/03 17:00:09;;;;;;;3.40;1.70;;;28.70;68.30;;;;;;5036435;28;20470;-93
2021/08/03 17:03:03;;;;;;;4.32;2.10;;;28.60;67.90;;;;;;5034642;28;20038;-87
2021/08/03 17:05:44;;;;;;;1.65;1.50;;;28.50;68.70;;;;;;5036447;28;20080;-84
2021/08/03 17:08:20;;;;;;;3.60;1.50;;;28.40;69.70;;;;;;5036959;28;20033;-85
2021/08/03 17:11:08;;;;;;;1.65;1.50;;;28.30;70.00;;;;;;5037182;28;20033;-86
2021/08/03 17:13:40;;;;;;;1.60;1.50;;;28.30;69.00;;;;;;5038064;28;20028;-84
2021/08/03 17:16:10;;;;;;;1.73;1.40;;;28.60;69.90;;;;;;5037560;28;20104;-84
2021/08/03 17:18:43;;;;;;;2.38;1.45;;;28.80;69.50;;;;;;5037406;28;20022;-86
2021/08/03 17:21:10;;;;;;;4.87;1.70;;;28.80;66.60;;;;;;5034699;28;20076;-84
2021/08/03 17:23:41;;;;;;;1.73;1.48;;;28.60;66.90;;;;;;5036178;28;20470;-84
2021/08/03 17:26:09;;;;;;;2.28;1.60;;;28.40;67.70;;;;;;5036053;28;20029;-88
2021/08/03 17:28:36;;;;;;;2.65;1.75;;;28.10;68.10;;;;;;5017244;28;20478;-87
2021/08/03 17:31:03;;;;;;;1.45;1.10;;;28.00;67.30;;;;;;5017908;28;20088;-87
2021/08/03 17:33:30;;;;;;;1.67;1.23;;;27.60;67.20;;;;;;5017926;28;20030;-87
2021/08/03 17:35:56;;;;;;;2.45;1.67;;;27.20;67.10;;;;;;5027243;28;20049;-87
2021/08/03 17:38:22;;;;;;;1.67;1.40;;;26.90;68.70;;;;;;5039543;28;20030;-85
2021/08/03 17:40:49;;;;;;;3.75;2.13;;;26.60;68.60;;;;;;5038097;28;20045;-85
2021/08/03 17:43:16;;;;;;;1.90;1.60;;;26.30;69.50;;;;;;5021825;28;20036;-85
2021/08/03 17:45:54;;;;;;;1.58;1.25;;;26.00;69.80;;;;;;5037900;28;20021;-86
2021/08/03 17:48:21;;;;;;;2.80;1.13;;;25.70;71.10;;;;;;5038908;28;20450;-86
2021/08/03 17:50:50;;;;;;;3.05;1.60;;;25.50;71.10;;;;;;5023426;28;20033;-86
2021/08/03 17:53:22;;;;;;;5.03;1.50;;;25.30;72.50;;;;;;5036691;28;20389;-86
2021/08/03 17:58:48;;;;;;;3.83;1.60;;;25.00;73.90;;;;;;4994396;28;20379;-83
2021/08/03 18:01:19;;;;;;;2.00;1.30;;;24.80;73.20;;;;;;5033997;28;20049;-83
2021/08/03 18:03:50;;;;;;;1.50;1.40;;;24.60;73.70;;;;;;5035209;28;20014;-84
2021/08/03 18:06:20;;;;;;;2.22;1.27;;;24.40;74.20;;;;;;5035201;28;20045;-84
2021/08/03 18:08:47;;;;;;;1.80;1.40;;;24.30;74.70;;;;;;5033547;28;20017;-84
2021/08/03 18:11:13;;;;;;;6.45;3.08;;;24.40;75.40;;;;;;5016603;28;20052;-83
2021/08/03 18:13:43;;;;;;;1.35;1.23;;;24.10;75.30;;;;;;5033200;28;20519;-83
2021/08/03 18:16:19;;;;;;;0.95;0.95;;;23.80;75.50;;;;;;5033163;28;20055;-84
2021/08/03 18:18:51;;;;;;;1.90;1.27;;;23.60;75.80;;;;;;5034464;28;20492;-84
2021/08/03 18:21:17;;;;;;;1.50;1.10;;;23.50;76.40;;;;;;5034596;28;20028;-84
2021/08/03 18:23:43;;;;;;;2.20;1.13;;;23.30;76.20;;;;;;5034873;28;20104;-84
2021/08/03 18:26:25;;;;;;;2.55;1.50;;;23.20;76.70;;;;;;5033120;28;20033;-84
2021/08/03 18:29:12;;;;;;;4.90;2.67;;;23.10;76.80;;;;;;5014836;28;20022;-84
2021/08/03 18:31:41;;;;;;;1.90;1.38;;;22.90;77.50;;;;;;5012938;28;20037;-84
2021/08/03 18:34:15;;;;;;;2.00;1.60;;;22.70;77.60;;;;;;5014198;28;20025;-84
2021/08/03 18:36:43;;;;;;;4.30;1.40;;;22.80;77.50;;;;;;5028941;28;20053;-84
2021/08/03 18:39:12;;;;;;;6.40;3.00;;;22.50;77.60;;;;;;5035365;28;20088;-84
2021/08/03 18:41:48;;;;;;;3.42;1.80;;;22.00;77.80;;;;;;5035596;28;20027;-86
2021/08/03 18:44:29;;;;;;;2.95;1.85;;;22.30;78.10;;;;;;5034433;28;20057;-85
2021/08/03 18:46:56;;;;;;;3.03;1.75;;;22.50;79.10;;;;;;5036324;28;20021;-86
2021/08/03 18:49:26;;;;;;;2.50;1.58;;;23.00;79.50;;;;;;5020289;28;20565;-86
2021/08/03 18:51:56;;;;;;;2.75;1.70;;;22.60;79.60;;;;;;5033806;28;20490;-84
2021/08/03 18:54:25;;;;;;;2.38;1.52;;;23.10;87.50;;;;;;5038599;28;20033;-87
2021/08/03 18:56:53;;;;;;;4.47;2.17;;;22.40;80.90;;;;;;5038353;28;20116;-87
2021/08/03 18:59:24;;;;;;;5.78;2.88;;;21.90;80.10;;;;;;5039849;28;20033;-87
2021/08/03 19:01:52;;;;;;;4.00;2.10;;;22.20;81.10;;;;;;5037521;28;20045;-85
2021/08/03 19:04:17;;;;;;;2.13;1.52;;;22.10;81.70;;;;;;5038076;28;20107;-87
2021/08/03 19:07:18;;;;;;;4.20;2.60;;;21.90;83.70;;;;;;5038943;28;20029;-86
2021/08/03 19:10:27;;;;;;;2.47;1.60;;;21.80;81.50;;;;;;5022855;28;20034;-87
2021/08/03 19:13:14;;;;;;;1.58;1.40;;;21.50;80.00;;;;;;5033255;28;20063;-84
2021/08/03 19:15:45;;;;;;;1.63;1.40;;;21.70;80.60;;;;;;5033373;28;20070;-84
2021/08/03 19:18:15;;;;;;;3.15;1.77;;;21.40;80.30;;;;;;5032226;28;20141;-83
2021/08/03 19:20:45;;;;;;;3.97;2.10;;;22.00;81.00;;;;;;5033673;28;20461;-87
2021/08/03 19:23:12;;;;;;;3.72;1.90;;;21.30;81.00;;;;;;5033273;28;20373;-81
2021/08/03 19:25:39;;;;;;;2.38;1.60;;;21.30;81.00;;;;;;5033481;28;20049;-81
2021/08/03 19:28:04;;;;;;;1.80;1.60;;;21.30;80.70;;;;;;5033553;28;20071;-82
2021/08/03 19:30:31;;;;;;;2.83;1.50;;;21.30;81.20;;;;;;5033671;28;20030;-83
2021/08/03 19:33:06;;;;;;;2.15;1.60;;;21.20;81.10;;;;;;5024667;28;20494;-84
2021/08/03 19:35:34;;;;;;;1.63;1.33;;;21.20;81.40;;;;;;5024859;28;20458;-87
2021/08/03 19:38:05;;;;;;;4.05;1.60;;;21.20;81.00;;;;;;5041322;28;20025;-87
2021/08/03 19:40:38;;;;;;;3.22;1.50;;;21.10;80.60;;;;;;5041605;28;20030;-86
2021/08/03 19:43:10;;;;;;;1.85;1.42;;;20.70;81.00;;;;;;5042169;28;20412;-86
2021/08/03 19:45:37;;;;;;;2.95;1.70;;;21.00;80.70;;;;;;5040895;28;20021;-80
2021/08/03 19:48:09;;;;;;;2.38;1.60;;;21.00;81.10;;;;;;5040987;28;20029;-84
2021/08/03 19:50:41;;;;;;;3.67;1.70;;;21.60;81.50;;;;;;5046239;28;20029;-86
2021/08/03 19:53:12;;;;;;;4.13;2.05;;;20.90;81.40;;;;;;5048215;28;20081;-87
2021/08/03 19:55:44;;;;;;;4.03;2.10;;;20.90;81.50;;;;;;5047861;28;20056;-88
2021/08/03 19:58:14;;;;;;;1.55;1.40;;;20.60;81.40;;;;;;5047008;28;20025;-88
2021/08/03 20:00:44;;;;;;;4.57;2.17;;;20.90;82.50;;;;;;5041407;28;20050;-87
2021/08/03 20:03:12;;;;;;;4.60;1.92;;;20.90;82.00;;;;;;5050253;28;20060;-90
2021/08/03 20:05:38;;;;;;;4.60;1.65;;;20.80;81.30;;;;;;5052033;28;20033;-88
2021/08/03 20:08:05;;;;;;;2.50;1.40;;;20.80;81.20;;;;;;5049522;28;20026;-88
2021/08/03 20:10:36;;;;;;;2.63;1.58;;;20.90;81.70;;;;;;5044267;28;20045;-87
2021/08/03 20:13:08;;;;;;;3.25;1.63;;;20.70;81.60;;;;;;5048893;28;20090;-86
2021/08/03 20:15:39;;;;;;;2.60;1.42;;;20.60;81.40;;;;;;5046414;28;20051;-87
2021/08/03 20:18:05;;;;;;;2.47;1.60;;;20.50;81.40;;;;;;5030825;28;20098;-87
2021/08/03 20:20:31;;;;;;;2.55;1.48;;;20.70;81.60;;;;;;5045993;28;20450;-87
2021/08/03 20:23:01;;;;;;;2.65;1.50;;;20.40;81.30;;;;;;5044923;28;20026;-86
2021/08/03 20:25:27;;;;;;;1.92;1.50;;;20.40;81.10;;;;;;5045416;28;20052;-87
2021/08/03 20:28:04;;;;;;;2.67;1.70;;;20.30;81.60;;;;;;5051319;28;20021;-86
2021/08/03 20:30:32;;;;;;;2.30;1.67;;;20.20;81.50;;;;;;5032064;28;20485;-85
2021/08/03 20:33:07;;;;;;;1.88;1.52;;;20.20;81.60;;;;;;5031683;28;20079;-85
2021/08/03 20:35:37;;;;;;;1.50;1.33;;;20.20;81.70;;;;;;5034908;28;20014;-86
2021/08/03 20:38:10;;;;;;;3.03;1.50;;;20.10;81.50;;;;;;5034804;28;20029;-85
2021/08/03 20:40:39;;;;;;;2.35;1.60;;;20.10;81.70;;;;;;5034601;28;20024;-85
2021/08/03 20:43:11;;;;;;;3.17;1.63;;;20.10;81.80;;;;;;5035632;28;20036;-85
2021/08/03 20:45:41;;;;;;;2.33;1.60;;;20.00;82.40;;;;;;5034568;28;20557;-85
2021/08/03 20:48:08;;;;;;;4.22;1.75;;;19.90;82.00;;;;;;5035805;28;20462;-86
2021/08/03 20:50:37;;;;;;;2.13;1.63;;;19.90;82.20;;;;;;5034595;28;20473;-87
2021/08/03 20:53:04;;;;;;;1.80;1.40;;;19.90;82.10;;;;;;5034495;28;20393;-87
2021/08/03 20:55:30;;;;;;;1.60;1.17;;;19.90;82.40;;;;;;5034383;28;20071;-87
2021/08/03 20:57:57;;;;;;;2.47;1.45;;;20.00;82.30;;;;;;5034520;28;20508;-89
2021/08/03 21:00:23;;;;;;;1.75;1.50;;;19.90;82.10;;;;;;5018368;28;20045;-89
2021/08/03 21:02:50;;;;;;;2.60;1.58;;;19.70;82.00;;;;;;5018522;28;20486;-88
2021/08/03 21:05:18;;;;;;;2.53;1.55;;;20.30;82.40;;;;;;5036026;28;20061;-89
2021/08/03 21:07:45;;;;;;;2.17;1.75;;;19.80;82.10;;;;;;5034288;28;20036;-88
2021/08/03 21:10:14;;;;;;;3.17;1.83;;;19.80;81.90;;;;;;5035781;28;20030;-88
2021/08/03 21:12:43;;;;;;;2.42;1.55;;;19.90;82.00;;;;;;5018513;28;20040;-88
2021/08/03 21:15:11;;;;;;;3.13;1.60;;;19.70;82.00;;;;;;5018556;28;20489;-88
2021/08/03 21:17:40;;;;;;;2.08;1.50;;;19.70;81.60;;;;;;5034968;28;20030;-88
2021/08/03 21:20:07;;;;;;;3.17;1.73;;;19.70;82.00;;;;;;5018485;28;20124;-88
2021/08/03 21:22:34;;;;;;;1.88;1.50;;;19.70;81.90;;;;;;5021120;28;20025;-88
2021/08/03 21:25:01;;;;;;;1.90;1.52;;;19.60;81.90;;;;;;5042268;28;20025;-88
2021/08/03 21:27:27;;;;;;;2.00;1.58;;;19.70;81.90;;;;;;5042190;28;20083;-89
2021/08/03 21:29:52;;;;;;;2.13;1.50;;;20.20;82.00;;;;;;5036120;28;20409;-89
2021/08/03 21:32:18;;;;;;;2.95;1.52;;;19.60;81.90;;;;;;5035262;28;20102;-89
2021/08/03 21:34:44;;;;;;;2.53;1.45;;;19.70;81.80;;;;;;5035524;28;20022;-89
2021/08/03 21:37:09;;;;;;;2.83;1.55;;;19.60;82.00;;;;;;5041785;28;20099;-88
2021/08/03 21:39:35;;;;;;;3.28;1.55;;;19.60;82.10;;;;;;5039750;28;20036;-89
2021/08/03 21:42:01;;;;;;;2.33;1.58;;;19.10;81.80;;;;;;5034971;28;20061;-88
2021/08/03 21:44:26;;;;;;;3.03;1.67;;;19.60;82.40;;;;;;5018157;28;20043;-88
2021/08/03 21:46:52;;;;;;;3.00;1.80;;;20.00;82.00;;;;;;5034661;28;20029;-89
2021/08/03 21:49:18;;;;;;;3.42;1.80;;;19.60;81.60;;;;;;5034026;28;20022;-88
2021/08/03 21:51:43;;;;;;;2.55;1.60;;;19.50;81.60;;;;;;5033887;28;20037;-88
2021/08/03 21:54:09;;;;;;;4.85;1.90;;;19.90;82.60;;;;;;5034787;28;20029;-88
2021/08/03 21:56:35;;;;;;;2.10;1.50;;;19.50;81.60;;;;;;5033955;28;20033;-89
2021/08/03 21:59:00;;;;;;;2.67;1.58;;;19.40;81.70;;;;;;5033727;28;20025;-88
2021/08/03 22:01:26;;;;;;;3.50;1.77;;;20.10;82.00;;;;;;5034661;28;20049;-89
2021/08/03 22:03:51;;;;;;;3.45;1.80;;;19.50;81.60;;;;;;5035154;28;20021;-89
2021/08/03 22:06:18;;;;;;;2.13;1.40;;;19.50;81.80;;;;;;5034262;28;20480;-89
2021/08/03 22:08:44;;;;;;;3.00;1.60;;;19.10;81.50;;;;;;5019933;28;20030;-88
2021/08/03 22:11:09;;;;;;;1.73;1.40;;;19.10;81.60;;;;;;5036983;28;20052;-86
2021/08/03 22:13:36;;;;;;;2.38;1.60;;;19.60;81.70;;;;;;5035861;28;20032;-89
2021/08/03 22:16:02;;;;;;;2.55;1.60;;;19.60;81.70;;;;;;5034785;28;20385;-88
2021/08/03 22:18:27;;;;;;;3.03;1.75;;;19.30;81.60;;;;;;5033795;28;20021;-88
2021/08/03 22:20:53;;;;;;;2.17;1.50;;;19.30;82.40;;;;;;5033537;28;20045;-88
2021/08/03 22:23:19;;;;;;;2.22;1.67;;;19.50;81.60;;;;;;5033858;28;20033;-90
2021/08/03 22:25:44;;;;;;;3.15;1.70;;;20.00;82.00;;;;;;5001087;28;20053;-90
2021/08/03 22:28:10;;;;;;;1.50;1.38;;;19.20;81.40;;;;;;5033623;28;20064;-90
2021/08/03 22:30:37;;;;;;;2.95;1.70;;;19.50;81.70;;;;;;5034017;28;20477;-90
2021/08/03 22:33:02;;;;;;;3.80;1.85;;;19.90;81.80;;;;;;5033623;28;20034;-90
2021/08/03 22:35:28;;;;;;;2.75;1.70;;;19.20;81.70;;;;;;5033334;28;20087;-90
2021/08/03 22:37:54;;;;;;;3.13;1.73;;;19.20;81.50;;;;;;5033349;28;20033;-89
2021/08/03 22:40:19;;;;;;;3.83;1.90;;;19.20;81.80;;;;;;5033305;28;20026;-89
2021/08/03 22:42:45;;;;;;;4.88;1.75;;;19.00;81.40;;;;;;5032977;28;20029;-89
2021/08/03 22:45:11;;;;;;;2.97;1.60;;;19.80;81.70;;;;;;5016742;28;20032;-89
2021/08/03 22:47:36;;;;;;;3.17;1.60;;;19.30;81.30;;;;;;5033258;28;20068;-89
2021/08/03 22:50:04;;;;;;;3.03;1.50;;;19.10;81.20;;;;;;5016325;28;20121;-89
2021/08/03 22:52:29;;;;;;;2.65;1.63;;;19.10;81.00;;;;;;5032849;28;20033;-89
2021/08/03 22:54:55;;;;;;;3.75;1.80;;;19.10;81.20;;;;;;5016968;28;20031;-89
2021/08/03 22:57:20;;;;;;;4.30;1.95;;;20.10;81.80;;;;;;5033961;28;20120;-90
2021/08/03 22:59:46;;;;;;;2.22;1.50;;;19.00;81.10;;;;;;5033480;28;20021;-89
2021/08/03 23:02:13;;;;;;;1.80;1.45;;;19.10;81.10;;;;;;5037240;28;20099;-89
2021/08/03 23:04:38;;;;;;;2.80;1.58;;;18.90;80.80;;;;;;5036228;28;20026;-89
2021/08/03 23:07:05;;;;;;;2.88;1.90;;;19.10;81.50;;;;;;5018935;28;20428;-89
2021/08/03 23:09:31;;;;;;;2.28;1.70;;;18.90;80.70;;;;;;5035766;28;20036;-89
2021/08/03 23:11:57;;;;;;;2.65;1.60;;;18.40;80.30;;;;;;5035652;28;20040;-88
2021/08/03 23:14:23;;;;;;;3.40;1.70;;;19.70;81.20;;;;;;5036620;28;20026;-89
2021/08/03 23:16:48;;;;;;;2.83;1.80;;;18.90;80.90;;;;;;5020723;28;20481;-89
2021/08/03 23:19:14;;;;;;;3.92;1.80;;;19.30;81.20;;;;;;5020058;28;20075;-90
2021/08/03 23:21:39;;;;;;;3.45;1.80;;;19.40;81.60;;;;;;5033394;28;20186;-88
2021/08/03 23:24:05;;;;;;;3.63;1.83;;;18.80;80.90;;;;;;5037981;28;20537;-89
2021/08/03 23:26:31;;;;;;;3.40;1.85;;;18.90;81.00;;;;;;5020055;28;20478;-89
2021/08/03 23:28:56;;;;;;;3.90;2.03;;;18.80;81.10;;;;;;5036682;28;20025;-88
2021/08/03 23:31:25;;;;;;;4.28;2.00;;;18.70;80.90;;;;;;5020919;28;20071;-88
2021/08/03 23:33:50;;;;;;;4.30;1.90;;;18.50;80.30;;;;;;5040335;28;20025;-84
2021/08/03 23:36:16;;;;;;;3.90;2.00;;;19.30;81.10;;;;;;5021999;28;20482;-87
2021/08/03 23:38:42;;;;;;;4.50;2.00;;;19.30;81.30;;;;;;5038612;28;20025;-87
2021/08/03 23:41:07;;;;;;;4.30;2.13;;;18.70;80.70;;;;;;5036058;28;20116;-87
2021/08/03 23:43:33;;;;;;;5.32;2.30;;;19.50;81.20;;;;;;5019259;28;20470;-87
2021/08/03 23:46:02;;;;;;;4.30;2.10;;;19.00;81.00;;;;;;5035702;28;20038;-87
2021/08/03 23:48:27;;;;;;;3.92;2.00;;;19.50;82.20;;;;;;5036204;28;20017;-87
2021/08/03 23:50:53;;;;;;;3.70;2.03;;;19.60;81.20;;;;;;5037201;28;20491;-87
2021/08/03 23:53:19;;;;;;;5.28;2.05;;;18.70;81.00;;;;;;5036200;28;20033;-87
2021/08/03 23:55:44;;;;;;;3.08;1.90;;;18.50;80.70;;;;;;5019125;28;20474;-87
2021/08/03 23:58:11;;;;;;;5.78;2.38;;;18.70;81.30;;;;;;5035905;28;20037;-88
